createdAt,value
2022-07-31T00:03:43.103Z,13.30
2022-07-31T00:08:45.346Z,13.20
2022-07-31T00:13:56.386Z,13.40
2022-07-31T00:18:59.305Z,14.10
2022-07-31T00:24:01.581Z,13.90
2022-07-31T00:34:07.672Z,14.40
2022-07-31T00:39:10.235Z,15.10
2022-07-31T00:44:14.951Z,14.90
2022-07-31T00:49:17.052Z,14.90
2022-07-31T00:54:22.929Z,14.00
2022-07-31T00:59:27.856Z,14.90
2022-07-31T01:04:31.283Z,14.10
2022-07-31T01:09:33.915Z,14.90
2022-07-31T01:14:48.462Z,15.00
2022-07-31T01:19:52.854Z,14.40
2022-07-31T01:25:14.356Z,15.20
2022-07-31T01:30:17.897Z,15.50
2022-07-31T01:35:29.745Z,15.50
2022-07-31T01:40:37.941Z,16.00
2022-07-31T01:45:45.176Z,16.20
2022-07-31T01:50:52.133Z,16.40
2022-07-31T01:56:02.145Z,15.70
2022-07-31T02:01:11.755Z,16.30
2022-07-31T02:06:18.017Z,17.20
2022-07-31T02:11:21.275Z,17.10
2022-07-31T02:16:25.835Z,16.90
2022-07-31T02:21:29.952Z,17.00
2022-07-31T02:26:33.413Z,17.60
2022-07-31T02:31:37.395Z,17.10
2022-07-31T02:36:39.959Z,18.10
2022-07-31T02:41:42.959Z,18.00
2022-07-31T02:46:45.737Z,18.00
2022-07-31T02:51:49.241Z,18.60
2022-07-31T02:56:53.532Z,18.30
2022-07-31T03:01:55.939Z,19.20
2022-07-31T03:07:00.580Z,18.70
2022-07-31T03:12:04.827Z,19.30
2022-07-31T03:17:08.827Z,19.50
2022-07-31T03:22:15.199Z,18.80
2022-07-31T03:27:17.746Z,19.40
2022-07-31T03:32:20.607Z,20.40
2022-07-31T03:37:22.633Z,19.90
2022-07-31T03:42:25.592Z,19.60
2022-07-31T03:47:27.867Z,19.20
2022-07-31T03:52:31.511Z,19.40
2022-07-31T03:57:35.804Z,20.00
2022-07-31T04:02:38.812Z,19.70
2022-07-31T04:07:43.623Z,20.60
2022-07-31T04:12:46.818Z,20.20
2022-07-31T04:17:52.323Z,20.00
2022-07-31T04:22:55.780Z,20.60
2022-07-31T04:28:01.342Z,20.70
2022-07-31T04:33:04.434Z,20.60
2022-07-31T04:38:06.942Z,20.70
2022-07-31T04:43:12.770Z,20.60
2022-07-31T04:48:15.123Z,20.80
2022-07-31T04:53:17.411Z,20.40
2022-07-31T04:58:19.865Z,21.00
2022-07-31T05:03:21.984Z,20.30
2022-07-31T05:08:24.565Z,20.90
2022-07-31T05:13:27.128Z,20.90
2022-07-31T05:18:29.367Z,20.90
2022-07-31T05:23:33.272Z,20.50
2022-07-31T05:28:37.199Z,21.30
2022-07-31T05:33:39.442Z,21.30
2022-07-31T05:38:42.381Z,21.30
2022-07-31T05:43:47.215Z,21.40
2022-07-31T05:48:50.058Z,20.50
2022-07-31T05:53:55.356Z,20.20
2022-07-31T05:59:04.596Z,19.80
2022-07-31T06:04:06.834Z,20.70
2022-07-31T06:09:09.389Z,19.50
2022-07-31T06:14:12.219Z,20.00
2022-07-31T06:19:16.564Z,20.10
2022-07-31T06:24:18.952Z,19.80
2022-07-31T06:29:41.721Z,19.70
2022-07-31T06:34:45.003Z,18.90
2022-07-31T06:39:56.308Z,18.60
2022-07-31T06:45:03.008Z,18.40
2022-07-31T06:50:11.338Z,18.30
2022-07-31T06:55:13.744Z,17.90
2022-07-31T07:00:20.501Z,17.50
2022-07-31T07:05:23.068Z,16.80
2022-07-31T07:10:26.581Z,16.90
2022-07-31T07:15:35.345Z,16.70
2022-07-31T07:20:37.703Z,16.60
2022-07-31T07:25:41.288Z,16.60
2022-07-31T07:30:45.068Z,16.00
2022-07-31T07:35:50.171Z,14.90
2022-07-31T07:40:54.122Z,14.30
2022-07-31T07:45:56.271Z,13.80
2022-07-31T07:50:58.519Z,13.80
2022-07-31T07:56:02.884Z,13.80
2022-07-31T08:01:06.998Z,12.90
2022-07-31T08:06:14.834Z,13.20
2022-07-31T08:11:18.001Z,12.40
2022-07-31T08:16:25.720Z,12.10
2022-07-31T08:21:30.543Z,11.60
2022-07-31T08:26:53.040Z,11.90
2022-07-31T08:31:55.268Z,10.90
2022-07-31T08:37:00.115Z,10.40
2022-07-31T08:42:24.234Z,9.90
2022-07-31T08:47:28.781Z,9.40
2022-07-31T08:52:34.794Z,8.60
2022-07-31T08:57:37.277Z,7.60
2022-07-31T09:02:43.259Z,7.30
2022-07-31T09:07:47.046Z,7.10
2022-07-31T09:12:49.679Z,7.40
2022-07-31T09:17:54.067Z,7.60
2022-07-31T09:23:07.479Z,6.60
2022-07-31T09:28:10.363Z,5.70
2022-07-31T09:33:17.485Z,6.00
2022-07-31T09:38:42.967Z,5.00
2022-07-31T09:44:10.179Z,5.10
2022-07-31T09:49:13.299Z,4.70
2022-07-31T09:54:26.840Z,4.70
2022-07-31T09:59:31.393Z,3.90
2022-07-31T10:04:35.672Z,4.10
2022-07-31T10:09:40.924Z,3.90
2022-07-31T10:14:44.942Z,3.70
2022-07-31T10:19:49.334Z,3.50
2022-07-31T10:24:53.816Z,3.60
2022-07-31T10:29:57.152Z,3.30
2022-07-31T10:35:00.291Z,3.20
2022-07-31T10:40:23.668Z,2.50
2022-07-31T10:45:26.909Z,2.30
2022-07-31T10:50:30.468Z,1.20
2022-07-31T10:55:35.456Z,2.00
2022-07-31T11:00:40.444Z,2.80
2022-07-31T11:06:02.549Z,1.40
2022-07-31T11:11:13.481Z,1.00
2022-07-31T11:16:18.944Z,1.00
2022-07-31T11:21:38.571Z,1.00
2022-07-31T11:26:52.119Z,1.00
2022-07-31T11:31:54.358Z,1.00
2022-07-31T11:36:56.806Z,1.00
2022-07-31T11:42:03.576Z,1.00
2022-07-31T11:48:10.274Z,1.00
2022-07-31T11:52:30.360Z,1.00
2022-07-31T11:57:51.490Z,1.00
2022-07-31T12:02:54.909Z,1.00
2022-07-31T12:07:57.297Z,1.00
2022-07-31T12:12:59.501Z,1.00
2022-07-31T12:18:03.970Z,1.00
2022-07-31T12:23:06.229Z,1.00
2022-07-31T12:28:10.218Z,1.00
2022-07-31T12:33:13.482Z,1.00
2022-07-31T12:38:45.290Z,1.00
2022-07-31T12:43:51.595Z,1.00
2022-07-31T12:48:54.817Z,1.00
2022-07-31T12:53:57.046Z,1.00
2022-07-31T12:59:02.353Z,1.00
2022-07-31T13:04:07.848Z,1.00
2022-07-31T13:09:20.457Z,1.00
2022-07-31T13:14:26.223Z,1.00
2022-07-31T13:19:28.470Z,1.00
2022-07-31T13:24:31.480Z,1.00
2022-07-31T13:29:33.837Z,1.00
2022-07-31T13:34:36.040Z,1.00
2022-07-31T13:39:38.359Z,1.00
2022-07-31T13:44:40.536Z,1.00
2022-07-31T13:49:42.811Z,1.00
2022-07-31T13:54:44.966Z,1.00
2022-07-31T13:59:47.167Z,1.00
2022-07-31T14:04:49.315Z,1.00
2022-07-31T14:09:55.342Z,1.00
2022-07-31T14:14:58.962Z,1.00
2022-07-31T14:20:01.318Z,1.00
2022-07-31T14:25:04.144Z,1.00
2022-07-31T14:30:08.054Z,1.00
2022-07-31T14:35:10.444Z,1.00
2022-07-31T14:40:13.420Z,1.00
2022-07-31T14:45:15.554Z,1.00
2022-07-31T14:50:19.658Z,1.00
2022-07-31T14:55:24.921Z,1.00
2022-07-31T15:00:27.081Z,1.00
2022-07-31T15:06:51.413Z,1.00
2022-07-31T15:10:54.095Z,1.00
2022-07-31T15:15:57.072Z,1.00
2022-07-31T15:20:59.300Z,1.00
2022-07-31T15:26:01.466Z,1.00
2022-07-31T15:31:05.164Z,1.00
2022-07-31T15:36:08.242Z,1.00
2022-07-31T15:41:13.535Z,1.00
2022-07-31T15:46:22.093Z,1.00
2022-07-31T15:51:24.222Z,1.00
2022-07-31T15:56:26.916Z,1.00
2022-07-31T16:01:29.138Z,1.00
2022-07-31T16:06:32.187Z,1.00
2022-07-31T16:12:04.995Z,1.00
2022-07-31T16:16:57.527Z,1.00
2022-07-31T16:22:00.101Z,1.00
2022-07-31T16:27:03.026Z,1.00
2022-07-31T16:32:05.720Z,1.00
2022-07-31T16:37:08.124Z,1.00
2022-07-31T16:42:10.513Z,1.00
2022-07-31T16:47:12.635Z,1.00
2022-07-31T16:52:15.232Z,1.00
2022-07-31T16:57:19.254Z,1.00
2022-07-31T17:02:21.538Z,1.00
2022-07-31T17:07:23.707Z,1.00
2022-07-31T17:12:25.897Z,1.00
2022-07-31T17:17:28.022Z,1.00
2022-07-31T17:22:30.196Z,1.00
2022-07-31T17:27:33.442Z,1.00
2022-07-31T17:32:36.246Z,1.00
2022-07-31T17:37:39.376Z,1.00
2022-07-31T17:42:41.992Z,1.00
2022-07-31T17:47:47.226Z,1.00
2022-07-31T17:53:05.702Z,1.00
2022-07-31T17:58:08.032Z,1.00
2022-07-31T18:03:10.261Z,1.00
2022-07-31T18:08:12.473Z,1.00
2022-07-31T18:13:14.654Z,1.00
2022-07-31T18:18:17.031Z,1.00
2022-07-31T18:23:19.224Z,1.00
2022-07-31T18:28:21.405Z,1.00
2022-07-31T18:33:23.588Z,1.00
2022-07-31T18:38:25.790Z,1.00
2022-07-31T18:43:28.006Z,1.00
2022-07-31T18:48:30.370Z,1.00
2022-07-31T18:53:33.422Z,1.00
2022-07-31T18:58:35.841Z,1.00
2022-07-31T19:03:38.424Z,1.00
2022-07-31T19:08:41.349Z,1.00
2022-07-31T19:13:43.720Z,1.00
2022-07-31T19:18:49.300Z,1.00
2022-07-31T19:23:52.728Z,1.00
2022-07-31T19:28:54.906Z,1.00
2022-07-31T19:33:57.144Z,1.00
2022-07-31T19:38:59.392Z,1.00
2022-07-31T19:44:01.810Z,1.00
2022-07-31T19:49:04.152Z,1.00
2022-07-31T19:54:06.476Z,1.00
2022-07-31T19:59:08.712Z,1.00
2022-07-31T20:04:11.346Z,1.50
2022-07-31T20:09:13.623Z,1.90
2022-07-31T20:14:15.818Z,1.60
2022-07-31T20:19:18.813Z,2.10
2022-07-31T20:24:21.109Z,1.90
2022-07-31T20:29:23.266Z,2.10
2022-07-31T20:34:26.067Z,1.90
2022-07-31T20:39:34.217Z,3.20
2022-07-31T20:44:42.632Z,3.50
2022-07-31T20:49:44.909Z,4.20
2022-07-31T20:54:47.044Z,3.60
2022-07-31T20:59:53.080Z,4.50
2022-07-31T21:04:55.275Z,5.50
2022-07-31T21:09:57.554Z,5.60
2022-07-31T21:15:00.289Z,6.20
2022-07-31T21:20:07.350Z,6.40
2022-07-31T21:25:10.583Z,7.10
2022-07-31T21:30:13.162Z,7.50
2022-07-31T21:35:15.839Z,8.00
2022-07-31T21:40:38.755Z,8.60
2022-07-31T21:45:49.692Z,8.10
2022-07-31T21:50:59.986Z,9.40
2022-07-31T21:56:03.296Z,8.60
2022-07-31T22:01:05.761Z,9.70
2022-07-31T22:06:30.703Z,10.00
2022-07-31T22:11:35.900Z,9.60
2022-07-31T22:16:38.385Z,10.00
2022-07-31T22:21:40.605Z,10.10
2022-07-31T22:27:08.658Z,10.10
2022-07-31T22:32:11.499Z,10.60
2022-07-31T22:37:15.382Z,9.90
2022-07-31T22:42:17.729Z,11.20
2022-07-31T22:47:20.359Z,10.90
2022-07-31T22:52:22.745Z,10.90
2022-07-31T22:57:35.391Z,11.80
2022-07-31T23:02:38.421Z,10.90
2022-07-31T23:07:40.882Z,12.20
2022-07-31T23:12:43.045Z,12.90
2022-07-31T23:17:45.232Z,12.80
2022-07-31T23:22:47.664Z,13.00
2022-07-31T23:27:49.834Z,13.20
2022-07-31T23:32:52.069Z,13.00
2022-07-31T23:37:54.378Z,13.00
2022-07-31T23:42:56.593Z,13.20
2022-07-31T23:47:59.114Z,13.50
2022-07-31T23:53:02.086Z,12.90
2022-07-31T23:58:04.290Z,14.00
